Ce Niriis — A8GG6 — position and weather

sailwx.info

Track history (hours):
 
Tides and Currents Weather Stations Pressure Air Temp Water Temp Dewpoint Dewpoint Depression Visibility Wind Speed Wind Dir Waves Ship Positions

Ce Niriis

Last reported at 2017-Sep-21 08:56 UTC. Time now 2017-Sep-24 14:20 UTC.
Position N 35°50' E 032°43'.

Length 243 m; draft 8 m.

Type: Tanker. MMSI: 636012570.

Date/timePositionNaut miles runAvg speedWind from/ knotsBaromVisibWave heightAir tempDewpointWater temp
2017-Sep-21 08:56N 35°50' E 032°43'613.5
2017-Sep-21 08:30N 35°50' E 032°36'913.4
2017-Sep-21 07:50N 35°50' E 032°25'513.4
2017-Sep-21 07:28N 35°50' E 032°19'613.3
2017-Sep-21 07:00N 35°49' E 032°11'713.3
2017-Sep-21 06:30N 35°49' E 032°03'813.4
2017-Sep-21 05:56N 35°49' E 031°54'613.3
2017-Sep-21 05:30N 35°49' E 031°47'713.4
2017-Sep-21 05:00N 35°49' E 031°38'713.3
2017-Sep-21 04:30N 35°49' E 031°30'713.4
2017-Sep-21 03:59N 35°49' E 031°21'613.2
2017-Sep-21 03:31N 35°48' E 031°14'612.9
2017-Sep-21 03:00N 35°48' E 031°06'712.9
2017-Sep-21 02:30N 35°48' E 030°58'612.7
2017-Sep-21 02:00N 35°48' E 030°50'612.8
2017-Sep-21 01:30N 35°48' E 030°42'613.0
2017-Sep-21 01:00N 35°48' E 030°34'713.2
2017-Sep-21 00:30N 35°48' E 030°26'3813.6
2017-Sep-20 21:44N 35°47' E 029°39'313.7
2017-Sep-20 21:29N 35°47' E 029°35'1013.6
2017-Sep-20 20:44N 35°47' E 029°23'313.5
2017-Sep-20 20:30N 35°47' E 029°19'1513.5
2017-Sep-20 19:25N 35°46' E 029°01'813.6
2017-Sep-20 18:51N 35°46' E 028°51'18213.0
2017-Sep-20 04:51N 36°07' E 025°08'813.6
2017-Sep-20 04:17N 36°07' E 024°59'1313.6
2017-Sep-20 03:21N 36°06' E 024°43'713.6
2017-Sep-20 02:52N 36°05' E 024°35'513.7
2017-Sep-20 02:30N 36°05' E 024°29'713.7
2017-Sep-20 02:00N 36°04' E 024°20'713.6
2017-Sep-20 01:30N 36°04' E 024°12'713.8
2017-Sep-20 01:00N 36°04' E 024°03'713.8
2017-Sep-20 00:30N 36°04' E 023°55'713.6
2017-Sep-19 23:58N 36°03' E 023°46'613.7
2017-Sep-19 23:30N 36°03' E 023°38'713.7
2017-Sep-19 23:00N 36°02' E 023°30'1313.9
2017-Sep-19 22:05N 36°02' E 023°14'114.0
2017-Sep-19 22:00N 36°02' E 023°12'20513.5
2017-Sep-19 06:51N 35°60' E 018°59'4913.9
2017-Sep-19 03:19N 35°60' E 017°58'5213.6
2017-Sep-18 23:28N 35°59' E 016°53'613.6
2017-Sep-18 23:00N 35°59' E 016°45'713.5
2017-Sep-18 22:30N 35°59' E 016°37'713.1
2017-Sep-18 22:00N 35°59' E 016°29'713.1
2017-Sep-18 21:30N 35°59' E 016°21'713.5
2017-Sep-18 21:00N 35°59' E 016°12'713.4
2017-Sep-18 20:30N 35°59' E 016°04'713.5
2017-Sep-18 20:00N 35°59' E 015°56'713.9
2017-Sep-18 19:30N 35°59' E 015°47'714.1
2017-Sep-18 19:00N 35°59' E 015°39'714.0
2017-Sep-18 18:30N 35°59' E 015°30'713.9
2017-Sep-18 18:00N 35°59' E 015°21'713.7
2017-Sep-18 17:30N 35°59' E 015°13'714.0
2017-Sep-18 17:00N 35°59' E 015°04'713.9
2017-Sep-18 16:30N 35°59' E 014°56'612.9
2017-Sep-18 16:01N 35°58' E 014°48'4 7.2
2017-Sep-18 15:28N 35°55' E 014°45'0 0.3
2017-Sep-18 14:58N 35°55' E 014°45'0 0.0
2017-Sep-18 14:28N 35°55' E 014°45'0 0.0
2017-Sep-18 13:58N 35°55' E 014°45'0 0.1
2017-Sep-18 13:28N 35°55' E 014°45'0 0.0
2017-Sep-18 12:58N 35°55' E 014°45'0 0.0
2017-Sep-18 12:25N 35°55' E 014°45'0 0.0
2017-Sep-18 11:55N 35°55' E 014°45'0 0.0
2017-Sep-18 11:28N 35°55' E 014°45'0 0.0
2017-Sep-18 10:58N 35°55' E 014°45'0 0.0
2017-Sep-18 10:28N 35°55' E 014°45'0 0.0
2017-Sep-18 09:58N 35°55' E 014°45'0 0.0
2017-Sep-18 09:28N 35°55' E 014°45'0 0.0
2017-Sep-18 08:58N 35°55' E 014°45'0 0.0
2017-Sep-18 08:28N 35°55' E 014°45'0 0.0
2017-Sep-18 07:58N 35°55' E 014°45'0 0.0
2017-Sep-18 07:28N 35°55' E 014°45'0 0.0
2017-Sep-18 06:58N 35°55' E 014°45'0 0.0
2017-Sep-18 06:28N 35°55' E 014°45'0 0.0
2017-Sep-18 06:01N 35°55' E 014°45'0 0.0
2017-Sep-18 05:31N 35°55' E 014°45'0 0.0
2017-Sep-18 05:00N 35°55' E 014°45'0 0.5
2017-Sep-18 04:30N 35°55' E 014°45'1 2.4
2017-Sep-18 04:00N 35°56' E 014°44'510.8
2017-Sep-18 03:30N 35°60' E 014°39'713.3
2017-Sep-18 03:00N 36°04' E 014°33'713.4
2017-Sep-18 02:30N 36°07' E 014°26'713.6
2017-Sep-18 02:00N 36°10' E 014°18'713.5
2017-Sep-18 01:30N 36°13' E 014°11'713.3
2017-Sep-18 01:00N 36°16' E 014°03'713.3
2017-Sep-18 00:29N 36°18' E 013°55'713.5
2017-Sep-18 00:00N 36°21' E 013°48'713.7
2017-Sep-17 23:30N 36°24' E 013°40'713.5
2017-Sep-17 22:59N 36°26' E 013°32'613.4
2017-Sep-17 22:30N 36°29' E 013°25'713.3
2017-Sep-17 22:00N 36°32' E 013°17'713.2
2017-Sep-17 21:30N 36°35' E 013°10'713.3
2017-Sep-17 21:00N 36°38' E 013°02'713.2
2017-Sep-17 20:29N 36°40' E 012°54'613.3
2017-Sep-17 20:00N 36°43' E 012°47'713.5
2017-Sep-17 19:30N 36°46' E 012°39'713.7
2017-Sep-17 19:00N 36°49' E 012°32'713.7
2017-Sep-17 18:30N 36°51' E 012°24'713.7
2017-Sep-17 18:00N 36°54' E 012°16'713.9
2017-Sep-17 17:30N 36°57' E 012°08'109 3.5
2017-Sep-16 10:11N 37°16' E 009°53'0 0.0
2017-Sep-16 09:59N 37°16' E 009°53'0 0.0
2017-Sep-16 09:26N 37°16' E 009°53'0 0.0
2017-Sep-16 08:59N 37°16' E 009°53'0 0.0
2017-Sep-15 14:16N 37°16' E 009°53'0 0.0
2017-Sep-15 13:58N 37°16' E 009°53'0 0.0
2017-Sep-15 13:28N 37°16' E 009°53'0 0.0
2017-Sep-15 12:58N 37°16' E 009°53'0 0.0
2017-Sep-15 11:25N 37°16' E 009°53'0 0.0
2017-Sep-15 10:58N 37°16' E 009°53'0 0.0
2017-Sep-15 07:51N 37°16' E 009°53'1 1.0
2017-Sep-15 06:39N 37°17' E 009°55'1 1.3
2017-Sep-15 05:32N 37°17' E 009°57'0 1.2
2017-Sep-15 05:14N 37°17' E 009°57'0 0.6
2017-Sep-15 04:59N 37°17' E 009°57'0 0.0
2017-Sep-15 03:20N 37°17' E 009°57'0 0.0
2017-Sep-15 00:10N 37°17' E 009°57'0 0.3
2017-Sep-14 23:52N 37°17' E 009°57'0 0.4
2017-Sep-14 23:28N 37°17' E 009°57'3 5.4
2017-Sep-14 23:00N 37°20' E 009°57'510.2
2017-Sep-14 22:29N 37°25' E 009°58'611.2
2017-Sep-14 21:59N 37°30' E 010°00'612.7
2017-Sep-14 21:29N 37°37' E 010°02'612.1
2017-Sep-14 21:00N 37°38' E 010°09'912.6
2017-Sep-14 20:15N 37°37' E 010°21'312.8
2017-Sep-14 20:00N 37°36' E 010°25'612.6
2017-Sep-14 19:30N 37°35' E 010°33'8713.1
2017-Sep-14 12:53N 37°02' E 012°13'513.2
2017-Sep-14 12:30N 37°01' E 012°19'713.1
2017-Sep-14 12:00N 36°58' E 012°27'713.0
2017-Sep-14 11:30N 36°56' E 012°34'713.1
2017-Sep-14 11:00N 36°54' E 012°42'713.1
2017-Sep-14 10:30N 36°52' E 012°50'612.8
2017-Sep-14 10:00N 36°50' E 012°58'612.8
2017-Sep-14 09:30N 36°48' E 013°05'612.6
2017-Sep-14 09:01N 36°46' E 013°13'612.4
2017-Sep-14 08:30N 36°44' E 013°20'612.4
2017-Sep-14 08:00N 36°42' E 013°27'612.4
2017-Sep-14 07:30N 36°40' E 013°35'612.3
2017-Sep-14 07:00N 36°39' E 013°42'612.1
2017-Sep-14 06:30N 36°37' E 013°49'612.0
2017-Sep-14 06:01N 36°35' E 013°56'612.3
2017-Sep-14 05:30N 36°34' E 014°04'612.2
2017-Sep-14 05:01N 36°31' E 014°11'612.5
2017-Sep-14 04:29N 36°30' E 014°19'612.1
2017-Sep-14 04:00N 36°28' E 014°26'611.8
2017-Sep-14 03:30N 36°27' E 014°33'612.1
2017-Sep-14 02:59N 36°24' E 014°40'612.2
2017-Sep-14 02:28N 36°22' E 014°48'612.5
2017-Sep-14 01:59N 36°21' E 014°55'612.5
2017-Sep-14 01:30N 36°19' E 015°02'612.5
2017-Sep-14 01:00N 36°18' E 015°10'1012.9
2017-Sep-14 00:12N 36°16' E 015°22'613.2
2017-Sep-13 23:46N 36°15' E 015°29'513.4
2017-Sep-13 23:22N 36°14' E 015°36'613.4
2017-Sep-13 22:56N 36°12' E 015°43'1513.3
2017-Sep-13 21:50N 36°09' E 016°00'1313.0
2017-Sep-13 20:49N 36°06' E 016°16'412.8
2017-Sep-13 20:30N 36°05' E 016°21'612.7
2017-Sep-13 20:00N 36°04' E 016°29'812.7
2017-Sep-13 19:21N 36°02' E 016°39'512.8
2017-Sep-13 19:00N 36°01' E 016°44'1312.8
2017-Sep-13 18:01N 35°58' E 016°59'013.5
2017-Sep-13 17:59N 35°58' E 016°60'812.7
2017-Sep-13 17:23N 35°57' E 017°09'512.7
2017-Sep-13 16:59N 35°56' E 017°15'61212.2
2017-Sep-11 14:52N 35°17' E 029°46'2513.4
2017-Sep-11 12:59N 35°21' E 030°17'613.5
2017-Sep-11 12:30N 35°22' E 030°24'713.2
2017-Sep-11 12:00N 35°23' E 030°32'713.2
2017-Sep-11 11:30N 35°25' E 030°40'713.0
2017-Sep-11 11:00N 35°27' E 030°48'713.0
2017-Sep-11 10:30N 35°28' E 030°56'612.6
2017-Sep-11 10:00N 35°28' E 031°03'612.7
2017-Sep-11 09:30N 35°29' E 031°11'612.7
2017-Sep-11 09:00N 35°31' E 031°19'  
Track history (hours):
 
Tides and Currents Weather Stations Pressure Air Temp Water Temp Dewpoint Dewpoint Depression Visibility Wind Speed Wind Dir Waves Ship Positions

Ce Niriis

Last reported at 2017-Sep-21 08:56 UTC. Time now 2017-Sep-24 14:20 UTC.
Position N 35°50' E 032°43'.

Length 243 m; draft 8 m.

Type: Tanker. MMSI: 636012570.

Date/timePositionNaut miles runAvg speedWind from/ knotsBaromVisibWave heightAir tempDewpointWater temp
2017-Sep-21 08:56N 35°50' E 032°43'613.5
2017-Sep-21 08:30N 35°50' E 032°36'913.4
2017-Sep-21 07:50N 35°50' E 032°25'513.4
2017-Sep-21 07:28N 35°50' E 032°19'613.3
2017-Sep-21 07:00N 35°49' E 032°11'713.3
2017-Sep-21 06:30N 35°49' E 032°03'813.4
2017-Sep-21 05:56N 35°49' E 031°54'613.3
2017-Sep-21 05:30N 35°49' E 031°47'713.4
2017-Sep-21 05:00N 35°49' E 031°38'713.3
2017-Sep-21 04:30N 35°49' E 031°30'713.4
2017-Sep-21 03:59N 35°49' E 031°21'613.2
2017-Sep-21 03:31N 35°48' E 031°14'612.9
2017-Sep-21 03:00N 35°48' E 031°06'712.9
2017-Sep-21 02:30N 35°48' E 030°58'612.7
2017-Sep-21 02:00N 35°48' E 030°50'612.8
2017-Sep-21 01:30N 35°48' E 030°42'613.0
2017-Sep-21 01:00N 35°48' E 030°34'713.2
2017-Sep-21 00:30N 35°48' E 030°26'3813.6
2017-Sep-20 21:44N 35°47' E 029°39'313.7
2017-Sep-20 21:29N 35°47' E 029°35'1013.6
2017-Sep-20 20:44N 35°47' E 029°23'313.5
2017-Sep-20 20:30N 35°47' E 029°19'1513.5
2017-Sep-20 19:25N 35°46' E 029°01'813.6
2017-Sep-20 18:51N 35°46' E 028°51'18213.0
2017-Sep-20 04:51N 36°07' E 025°08'813.6
2017-Sep-20 04:17N 36°07' E 024°59'1313.6
2017-Sep-20 03:21N 36°06' E 024°43'713.6
2017-Sep-20 02:52N 36°05' E 024°35'513.7
2017-Sep-20 02:30N 36°05' E 024°29'713.7
2017-Sep-20 02:00N 36°04' E 024°20'713.6
2017-Sep-20 01:30N 36°04' E 024°12'713.8
2017-Sep-20 01:00N 36°04' E 024°03'713.8
2017-Sep-20 00:30N 36°04' E 023°55'713.6
2017-Sep-19 23:58N 36°03' E 023°46'613.7
2017-Sep-19 23:30N 36°03' E 023°38'713.7
2017-Sep-19 23:00N 36°02' E 023°30'1313.9
2017-Sep-19 22:05N 36°02' E 023°14'114.0
2017-Sep-19 22:00N 36°02' E 023°12'20513.5
2017-Sep-19 06:51N 35°60' E 018°59'4913.9
2017-Sep-19 03:19N 35°60' E 017°58'5213.6
2017-Sep-18 23:28N 35°59' E 016°53'613.6
2017-Sep-18 23:00N 35°59' E 016°45'713.5
2017-Sep-18 22:30N 35°59' E 016°37'713.1
2017-Sep-18 22:00N 35°59' E 016°29'713.1
2017-Sep-18 21:30N 35°59' E 016°21'713.5
2017-Sep-18 21:00N 35°59' E 016°12'713.4
2017-Sep-18 20:30N 35°59' E 016°04'713.5
2017-Sep-18 20:00N 35°59' E 015°56'713.9
2017-Sep-18 19:30N 35°59' E 015°47'714.1
2017-Sep-18 19:00N 35°59' E 015°39'714.0
2017-Sep-18 18:30N 35°59' E 015°30'713.9
2017-Sep-18 18:00N 35°59' E 015°21'713.7
2017-Sep-18 17:30N 35°59' E 015°13'714.0
2017-Sep-18 17:00N 35°59' E 015°04'713.9
2017-Sep-18 16:30N 35°59' E 014°56'612.9
2017-Sep-18 16:01N 35°58' E 014°48'4 7.2
2017-Sep-18 15:28N 35°55' E 014°45'0 0.3
2017-Sep-18 14:58N 35°55' E 014°45'0 0.0
2017-Sep-18 14:28N 35°55' E 014°45'0 0.0
2017-Sep-18 13:58N 35°55' E 014°45'0 0.1
2017-Sep-18 13:28N 35°55' E 014°45'0 0.0
2017-Sep-18 12:58N 35°55' E 014°45'0 0.0
2017-Sep-18 12:25N 35°55' E 014°45'0 0.0
2017-Sep-18 11:55N 35°55' E 014°45'0 0.0
2017-Sep-18 11:28N 35°55' E 014°45'0 0.0
2017-Sep-18 10:58N 35°55' E 014°45'0 0.0
2017-Sep-18 10:28N 35°55' E 014°45'0 0.0
2017-Sep-18 09:58N 35°55' E 014°45'0 0.0
2017-Sep-18 09:28N 35°55' E 014°45'0 0.0
2017-Sep-18 08:58N 35°55' E 014°45'0 0.0
2017-Sep-18 08:28N 35°55' E 014°45'0 0.0
2017-Sep-18 07:58N 35°55' E 014°45'0 0.0
2017-Sep-18 07:28N 35°55' E 014°45'0 0.0
2017-Sep-18 06:58N 35°55' E 014°45'0 0.0
2017-Sep-18 06:28N 35°55' E 014°45'0 0.0
2017-Sep-18 06:01N 35°55' E 014°45'0 0.0
2017-Sep-18 05:31N 35°55' E 014°45'0 0.0
2017-Sep-18 05:00N 35°55' E 014°45'0 0.5
2017-Sep-18 04:30N 35°55' E 014°45'1 2.4
2017-Sep-18 04:00N 35°56' E 014°44'510.8
2017-Sep-18 03:30N 35°60' E 014°39'713.3
2017-Sep-18 03:00N 36°04' E 014°33'713.4
2017-Sep-18 02:30N 36°07' E 014°26'713.6
2017-Sep-18 02:00N 36°10' E 014°18'713.5
2017-Sep-18 01:30N 36°13' E 014°11'713.3
2017-Sep-18 01:00N 36°16' E 014°03'713.3
2017-Sep-18 00:29N 36°18' E 013°55'713.5
2017-Sep-18 00:00N 36°21' E 013°48'713.7
2017-Sep-17 23:30N 36°24' E 013°40'713.5
2017-Sep-17 22:59N 36°26' E 013°32'613.4
2017-Sep-17 22:30N 36°29' E 013°25'713.3
2017-Sep-17 22:00N 36°32' E 013°17'713.2
2017-Sep-17 21:30N 36°35' E 013°10'713.3
2017-Sep-17 21:00N 36°38' E 013°02'713.2
2017-Sep-17 20:29N 36°40' E 012°54'613.3
2017-Sep-17 20:00N 36°43' E 012°47'713.5
2017-Sep-17 19:30N 36°46' E 012°39'713.7
2017-Sep-17 19:00N 36°49' E 012°32'713.7
2017-Sep-17 18:30N 36°51' E 012°24'713.7
2017-Sep-17 18:00N 36°54' E 012°16'713.9
2017-Sep-17 17:30N 36°57' E 012°08'109 3.5
2017-Sep-16 10:11N 37°16' E 009°53'0 0.0
2017-Sep-16 09:59N 37°16' E 009°53'0 0.0
2017-Sep-16 09:26N 37°16' E 009°53'0 0.0
2017-Sep-16 08:59N 37°16' E 009°53'0 0.0
2017-Sep-15 14:16N 37°16' E 009°53'0 0.0
2017-Sep-15 13:58N 37°16' E 009°53'0 0.0
2017-Sep-15 13:28N 37°16' E 009°53'0 0.0
2017-Sep-15 12:58N 37°16' E 009°53'0 0.0
2017-Sep-15 11:25N 37°16' E 009°53'0 0.0
2017-Sep-15 10:58N 37°16' E 009°53'0 0.0
2017-Sep-15 07:51N 37°16' E 009°53'1 1.0
2017-Sep-15 06:39N 37°17' E 009°55'1 1.3
2017-Sep-15 05:32N 37°17' E 009°57'0 1.2
2017-Sep-15 05:14N 37°17' E 009°57'0 0.6
2017-Sep-15 04:59N 37°17' E 009°57'0 0.0
2017-Sep-15 03:20N 37°17' E 009°57'0 0.0
2017-Sep-15 00:10N 37°17' E 009°57'0 0.3
2017-Sep-14 23:52N 37°17' E 009°57'0 0.4
2017-Sep-14 23:28N 37°17' E 009°57'3 5.4
2017-Sep-14 23:00N 37°20' E 009°57'510.2
2017-Sep-14 22:29N 37°25' E 009°58'611.2
2017-Sep-14 21:59N 37°30' E 010°00'612.7
2017-Sep-14 21:29N 37°37' E 010°02'612.1
2017-Sep-14 21:00N 37°38' E 010°09'912.6
2017-Sep-14 20:15N 37°37' E 010°21'312.8
2017-Sep-14 20:00N 37°36' E 010°25'612.6
2017-Sep-14 19:30N 37°35' E 010°33'8713.1
2017-Sep-14 12:53N 37°02' E 012°13'513.2
2017-Sep-14 12:30N 37°01' E 012°19'713.1
2017-Sep-14 12:00N 36°58' E 012°27'713.0
2017-Sep-14 11:30N 36°56' E 012°34'713.1
2017-Sep-14 11:00N 36°54' E 012°42'713.1
2017-Sep-14 10:30N 36°52' E 012°50'612.8
2017-Sep-14 10:00N 36°50' E 012°58'612.8
2017-Sep-14 09:30N 36°48' E 013°05'612.6
2017-Sep-14 09:01N 36°46' E 013°13'612.4
2017-Sep-14 08:30N 36°44' E 013°20'612.4
2017-Sep-14 08:00N 36°42' E 013°27'612.4
2017-Sep-14 07:30N 36°40' E 013°35'612.3
2017-Sep-14 07:00N 36°39' E 013°42'612.1
2017-Sep-14 06:30N 36°37' E 013°49'612.0
2017-Sep-14 06:01N 36°35' E 013°56'612.3
2017-Sep-14 05:30N 36°34' E 014°04'612.2
2017-Sep-14 05:01N 36°31' E 014°11'612.5
2017-Sep-14 04:29N 36°30' E 014°19'612.1
2017-Sep-14 04:00N 36°28' E 014°26'611.8
2017-Sep-14 03:30N 36°27' E 014°33'612.1
2017-Sep-14 02:59N 36°24' E 014°40'612.2
2017-Sep-14 02:28N 36°22' E 014°48'612.5
2017-Sep-14 01:59N 36°21' E 014°55'612.5
2017-Sep-14 01:30N 36°19' E 015°02'612.5
2017-Sep-14 01:00N 36°18' E 015°10'1012.9
2017-Sep-14 00:12N 36°16' E 015°22'613.2
2017-Sep-13 23:46N 36°15' E 015°29'513.4
2017-Sep-13 23:22N 36°14' E 015°36'613.4
2017-Sep-13 22:56N 36°12' E 015°43'1513.3
2017-Sep-13 21:50N 36°09' E 016°00'1313.0
2017-Sep-13 20:49N 36°06' E 016°16'412.8
2017-Sep-13 20:30N 36°05' E 016°21'612.7
2017-Sep-13 20:00N 36°04' E 016°29'812.7
2017-Sep-13 19:21N 36°02' E 016°39'512.8
2017-Sep-13 19:00N 36°01' E 016°44'1312.8
2017-Sep-13 18:01N 35°58' E 016°59'013.5
2017-Sep-13 17:59N 35°58' E 016°60'812.7
2017-Sep-13 17:23N 35°57' E 017°09'512.7
2017-Sep-13 16:59N 35°56' E 017°15'61212.2
2017-Sep-11 14:52N 35°17' E 029°46'2513.4
2017-Sep-11 12:59N 35°21' E 030°17'613.5
2017-Sep-11 12:30N 35°22' E 030°24'713.2
2017-Sep-11 12:00N 35°23' E 030°32'713.2
2017-Sep-11 11:30N 35°25' E 030°40'713.0
2017-Sep-11 11:00N 35°27' E 030°48'713.0
2017-Sep-11 10:30N 35°28' E 030°56'612.6
2017-Sep-11 10:00N 35°28' E 031°03'612.7
2017-Sep-11 09:30N 35°29' E 031°11'612.7
2017-Sep-11 09:00N 35°31' E 031°19'  

Dump ship's entire track history